Peshawar Weather



Peshawar's Current Weather

Temprature 6o mist

mist

Rain: 0 %

Min Temprature6o
Max Temprature6o
Humidity93
Wind Speed0.89 m/h
Sun Rise07:18:01
Sun Set17:29:42
Current Time: 18-Jan-2021 05:23:42
Lat/Lon: 34.008, 71.5785




Peshawar's Geo Location



Peshawar's Weather Forecast

Time Overall Temp Min Temp Max Temp Humidity Wind Speed Rain
18-Jan-2021 (Mon)
08:00:00 scattered clouds 8.020 8.020 10.140 71 0.4 m/h 0 %
11:00:00 few clouds 13.320 13.320 15.340 46 0.77 m/h 0 %
14:00:00 clear sky 17.630 17.630 18.430 32 0.65 m/h 0 %
17:00:00 few clouds 17.240 17.240 17.330 30 0.26 m/h 0 %
20:00:00 few clouds 14.560 14.560 14.560 35 0.68 m/h 0 %
23:00:00 clear sky 13.260 13.260 13.260 38 0.22 m/h 0 %
19-Jan-2021 (Tue)
02:00:00 clear sky 11.760 11.760 11.760 42 0.65 m/h 0 %
05:00:00 clear sky 10.620 10.620 10.620 45 0.08 m/h 0 %
08:00:00 clear sky 10.780 10.780 10.780 45 0.46 m/h 0 %
11:00:00 clear sky 16.170 16.170 16.170 31 0.91 m/h 0 %
14:00:00 clear sky 19.530 19.530 19.530 24 0.68 m/h 0 %
17:00:00 clear sky 18.090 18.090 18.090 27 1.07 m/h 0 %
20:00:00 clear sky 15.430 15.430 15.430 31 1.16 m/h 0 %
23:00:00 clear sky 13.400 13.400 13.400 35 0.67 m/h 0 %
20-Jan-2021 (Wed)
02:00:00 clear sky 11.650 11.650 11.650 39 0.51 m/h 0 %
05:00:00 clear sky 10.470 10.470 10.470 42 0.37 m/h 0 %
08:00:00 clear sky 10.740 10.740 10.740 42 0.53 m/h 0 %
11:00:00 clear sky 16.550 16.550 16.550 28 0.49 m/h 0 %
14:00:00 clear sky 20.310 20.310 20.310 22 0.7 m/h 0 %
17:00:00 scattered clouds 18.310 18.310 18.310 26 0.87 m/h 0 %
20:00:00 overcast clouds 15.610 15.610 15.610 30 1.8 m/h 0 %
23:00:00 broken clouds 13.630 13.630 13.630 34 0.8 m/h 0 %
21-Jan-2021 (Thu)
02:00:00 broken clouds 11.890 11.890 11.890 37 0.74 m/h 0 %
05:00:00 overcast clouds 10.630 10.630 10.630 40 0.31 m/h 0 %
08:00:00 overcast clouds 10.790 10.790 10.790 40 0.88 m/h 0 %
11:00:00 overcast clouds 15.620 15.620 15.620 28 0.46 m/h 0 %
14:00:00 overcast clouds 19.060 19.060 19.060 23 0.81 m/h 0 %
17:00:00 overcast clouds 17.610 17.610 17.610 27 0.72 m/h 0 %
20:00:00 scattered clouds 14.640 14.640 14.640 31 1.12 m/h 0 %
23:00:00 few clouds 12.190 12.190 12.190 35 0.97 m/h 0 %
22-Jan-2021 (Fri)
02:00:00 few clouds 10.680 10.680 10.680 39 1.17 m/h 0 %
05:00:00 broken clouds 10.260 10.260 10.260 40 0.51 m/h 0 %
08:00:00 scattered clouds 10.420 10.420 10.420 41 0.48 m/h 0 %
11:00:00 few clouds 15.570 15.570 15.570 28 0.61 m/h 0 %
14:00:00 clear sky 18.710 18.710 18.710 23 1 m/h 0 %
17:00:00 clear sky 17.750 17.750 17.750 26 0.97 m/h 0 %
20:00:00 clear sky 14.950 14.950 14.950 31 1.66 m/h 0 %
23:00:00 clear sky 13.140 13.140 13.140 35 1.83 m/h 0 %
23-Jan-2021 (Sat)
02:00:00 clear sky 11.230 11.230 11.230 40 2.05 m/h 0 %
05:00:00 clear sky 10.320 10.320 10.320 40 2.68 m/h 0 %

Famous Cities (60)